Alkol, West Virginia
Current Conditions -  °F | °C
As of 11:54 AM on Wednesday 22 Oct 2014 (Local Time) from KCRW Reporting Station
Overcast Overcast  
Wind Chill:   Ceiling: 1300
Heat Index:   Visibility: 10mi
Dew Point:   Wind: 7mph
Humidity: 83%   Direction: 320°NW
Pressure: 30.21"   Gusts: NA
Location:  38.16°N, 81.92°W
Report Text: KCRW 221554Z 32006KT 10SM OVC013 09/07 A3021 RMK AO2 SLP230 T00940067
Loading
Personal Weather Stations






























Interactive Weather Map
Tropical Storm Tracking
New forecast layout! Learn more

10-Day Weather Forecast

Advertisements
Track Severe Weather on mobile